Time;durP1;ratioP1;P1;durP2;ratioP2;P2;SDS_P1;SDS_P2;PMS_P1;PMS_P2;Temp;Humidity;BMP_temperature;BMP_pressure;BME280_temperature;BME280_humidity;BME280_pressure;Samples;Min_cycle;Max_cycle;Signal;HPM_P1;HPM_P2
2024/01/03 00:03:21;;;;;;;14.23;8.60;;;;;;;7.57;63.77;98441.06;7684549;32;37895;-79
2024/01/03 00:07:38;;;;;;;15.80;8.35;;;;;;;7.74;63.36;98432.50;7683407;32;40045;-79
2024/01/03 00:11:55;;;;;;;14.75;8.18;;;;;;;7.61;63.53;98433.97;7682947;32;39096;-79
2024/01/03 00:16:19;;;;;;;14.07;9.00;;;;;;;7.26;64.52;98452.16;7684426;32;37196;-79
2024/01/03 00:20:35;;;;;;;15.30;9.02;;;;;;;7.64;63.45;98457.81;7684539;32;39312;-79
2024/01/03 00:24:52;;;;;;;16.40;9.02;;;;;;;7.36;64.28;98470.25;7684297;32;40087;-79
2024/01/03 00:29:28;;;;;;;14.30;7.72;;;;;;;7.66;63.41;98480.06;7683084;32;37610;-79
2024/01/03 00:33:45;;;;;;;16.12;8.82;;;;;;;7.59;63.80;98474.13;7676368;32;37092;-80
2024/01/03 00:38:01;;;;;;;13.43;8.38;;;;;;;7.65;63.52;98491.97;7682914;32;40125;-79
2024/01/03 00:42:17;;;;;;;14.48;8.15;;;;;;;7.41;64.31;98492.69;7670274;32;40798;-79
2024/01/03 00:46:33;;;;;;;12.65;7.12;;;;;;;7.43;64.40;98484.28;7683770;32;39402;-80
2024/01/03 00:50:50;;;;;;;11.80;6.60;;;;;;;7.71;63.52;98469.16;7683781;32;38114;-80
2024/01/03 00:55:08;;;;;;;13.27;7.15;;;;;;;7.79;63.07;98465.81;7694754;32;39838;-80
2024/01/03 00:59:25;;;;;;;11.43;6.20;;;;;;;7.68;63.51;98439.88;7710400;32;40064;-80
2024/01/03 01:03:41;;;;;;;13.18;7.18;;;;;;;7.80;62.95;98440.31;7709926;32;38027;-80
2024/01/03 01:07:57;;;;;;;13.43;7.40;;;;;;;7.42;63.96;98450.16;7710019;32;37880;-80
2024/01/03 01:12:13;;;;;;;12.18;7.30;;;;;;;7.48;63.91;98459.84;7710039;32;39273;-80
2024/01/03 01:16:30;;;;;;;14.48;7.43;;;;;;;7.78;63.06;98468.78;7709756;32;39891;-79
2024/01/03 01:20:46;;;;;;;12.48;7.20;;;;;;;7.72;62.92;98470.75;7709686;32;38600;-79
2024/01/03 01:25:02;;;;;;;10.55;6.68;;;;;;;7.50;63.66;98457.66;7711120;32;37937;-80
2024/01/03 01:29:18;;;;;;;12.75;7.80;;;;;;;7.62;63.31;98449.16;7699460;32;39865;-79
2024/01/03 01:33:35;;;;;;;13.05;7.40;;;;;;;7.24;64.19;98449.72;7713016;32;40193;-80
2024/01/03 01:37:51;;;;;;;12.65;7.12;;;;;;;7.50;63.43;98431.34;7699171;32;38628;-80
2024/01/03 01:42:08;;;;;;;14.30;7.30;;;;;;;7.27;64.11;98434.81;7699309;32;37183;-80
2024/01/03 01:46:24;;;;;;;13.25;7.07;;;;;;;7.58;63.16;98423.69;7712886;32;39406;-80
2024/01/03 01:50:41;;;;;;;14.35;6.72;;;;;;;7.93;62.16;98405.44;7695326;32;39970;-79
2024/01/03 01:54:57;;;;;;;11.98;6.78;;;;;;;7.92;61.98;98403.81;7686031;32;37887;-80
2024/01/03 01:59:14;;;;;;;9.75;5.75;;;;;;;7.84;61.79;98386.28;7686137;32;37152;-80
2024/01/03 02:03:31;;;;;;;13.55;7.80;;;;;;;8.00;61.93;98362.47;7684741;32;39308;-80
2024/01/03 02:07:48;;;;;;;13.85;7.28;;;;;;;7.81;62.54;98363.25;7686001;32;39880;-80
2024/01/03 02:12:05;;;;;;;11.80;5.80;;;;;;;7.80;62.78;98353.47;7684695;32;38400;-79
2024/01/03 02:16:22;;;;;;;9.57;5.50;;;;;;;8.16;62.11;98354.94;7685819;32;37569;-79
2024/01/03 02:20:38;;;;;;;11.05;5.32;;;;;;;8.04;62.64;98341.81;7685938;32;40919;-80
2024/01/03 02:24:54;;;;;;;9.27;5.30;;;;;;;8.03;62.77;98332.03;7684539;32;40554;-80
2024/01/03 02:29:11;;;;;;;9.02;5.30;;;;;;;8.23;62.18;98329.06;7685720;32;37874;-80
2024/01/03 02:33:27;;;;;;;10.35;4.65;;;;;;;8.23;61.98;98333.69;7685750;32;37122;-79
2024/01/03 02:37:43;;;;;;;11.90;5.47;;;;;;;8.37;61.67;98329.16;7685493;32;40939;-80
2024/01/03 02:42:00;;;;;;;9.82;4.93;;;;;;;8.54;61.21;98323.25;7685576;32;39924;-80
2024/01/03 02:46:19;;;;;;;9.75;5.03;;;;;;;8.29;61.85;98310.78;7711386;32;38852;-80
2024/01/03 02:50:36;;;;;;;7.87;4.90;;;;;;;8.48;61.57;98323.63;7712174;32;37139;-80
2024/01/03 02:54:52;;;;;;;8.95;4.60;;;;;;;8.49;61.22;98312.47;7711941;32;40239;-79
2024/01/03 02:59:08;;;;;;;9.38;4.65;;;;;;;8.73;60.99;98336.03;7712058;32;40015;-79
2024/01/03 03:03:24;;;;;;;9.45;4.35;;;;;;;8.67;60.94;98329.84;7711805;32;37564;-80
2024/01/03 03:07:40;;;;;;;10.38;4.60;;;;;;;8.38;62.91;98329.94;7711658;32;38185;-79
2024/01/03 03:11:57;;;;;;;10.05;4.80;;;;;;;8.65;61.75;98324.69;7711678;32;39352;-79
2024/01/03 03:16:13;;;;;;;8.00;4.10;;;;;;;8.42;61.13;98322.84;7711739;32;40876;-79
2024/01/03 03:20:29;;;;;;;7.93;4.60;;;;;;;8.61;61.08;98318.25;7711779;32;38592;-79
2024/01/03 03:24:45;;;;;;;6.47;4.12;;;;;;;8.56;62.00;98328.38;7711806;32;37043;-80
2024/01/03 03:29:02;;;;;;;8.43;4.32;;;;;;;8.45;62.84;98319.56;7711782;32;39361;-79
2024/01/03 03:33:18;;;;;;;6.47;4.30;;;;;;;8.52;62.40;98314.59;7709311;32;40062;-79
2024/01/03 03:37:35;;;;;;;7.72;4.47;;;;;;;8.61;62.46;98328.31;7684896;32;37959;-80
2024/01/03 03:41:51;;;;;;;8.18;4.43;;;;;;;8.26;64.36;98346.66;7685734;32;37409;-79
2024/01/03 03:46:08;;;;;;;7.25;4.28;;;;;;;8.33;63.98;98344.44;7684423;32;39491;-80
2024/01/03 03:50:24;;;;;;;6.30;3.70;;;;;;;8.15;64.30;98359.56;7683575;32;40662;-80
2024/01/03 03:54:41;;;;;;;8.80;4.47;;;;;;;8.26;64.56;98379.25;7684653;32;38559;-80
2024/01/03 03:58:57;;;;;;;7.60;4.10;;;;;;;7.99;65.66;98382.59;7684956;32;37319;-79
2024/01/03 04:03:13;;;;;;;8.27;3.83;;;;;;;7.60;66.84;98376.19;7684587;32;40303;-80
2024/01/03 04:07:31;;;;;;;5.43;3.37;;;;;;;7.51;67.83;98395.00;7684654;32;39948;-81
2024/01/03 04:11:47;;;;;;;5.15;3.17;;;;;;;7.66;68.08;98379.69;7694865;32;38061;-79
2024/01/03 04:16:07;;;;;;;4.95;3.25;;;;;;;7.23;69.40;98366.00;7711100;32;37065;-79
2024/01/03 04:20:24;;;;;;;5.37;3.15;;;;;;;7.65;68.14;98338.16;7711039;32;39478;-79
2024/01/03 04:24:40;;;;;;;4.72;2.90;;;;;;;8.06;66.89;98328.75;7711101;32;40036;-80
2024/01/03 04:28:56;;;;;;;4.15;3.00;;;;;;;8.46;65.69;98332.84;7697276;32;37516;-79
2024/01/03 04:33:12;;;;;;;6.50;3.10;;;;;;;8.63;64.99;98337.78;7710473;32;37598;-80
2024/01/03 04:37:30;;;;;;;4.32;3.12;;;;;;;8.81;64.51;98324.47;7710751;32;40175;-80
2024/01/03 04:41:46;;;;;;;5.85;3.00;;;;;;;8.65;64.95;98318.47;7699615;32;40512;-80
2024/01/03 04:46:03;;;;;;;4.75;3.00;;;;;;;8.89;63.92;98312.94;7682895;32;37564;-80
2024/01/03 04:50:19;;;;;;;5.03;2.80;;;;;;;8.93;63.84;98286.75;7683934;32;37914;-79
2024/01/03 04:54:35;;;;;;;4.22;2.90;;;;;;;8.78;64.84;98314.22;7683798;32;39474;-80
2024/01/03 04:58:51;;;;;;;5.15;3.00;;;;;;;9.00;63.96;98298.06;7682453;32;40036;-79
2024/01/03 05:03:07;;;;;;;5.57;3.05;;;;;;;8.76;64.76;98306.34;7683428;32;37837;-79
2024/01/03 05:07:24;;;;;;;4.87;2.65;;;;;;;9.13;63.28;98307.34;7683550;32;37385;-79
2024/01/03 05:11:41;;;;;;;4.05;2.62;;;;;;;9.12;63.13;98307.66;7692183;32;40120;-79
2024/01/03 05:15:57;;;;;;;6.20;3.20;;;;;;;8.43;65.34;98308.19;7709815;32;41658;-79
2024/01/03 05:20:14;;;;;;;5.75;3.22;;;;;;;8.55;64.93;98307.75;7709765;32;37782;-80
2024/01/03 05:24:30;;;;;;;5.50;2.95;;;;;;;8.93;63.84;98315.84;7709710;32;38017;-79
2024/01/03 05:28:46;;;;;;;5.25;3.05;;;;;;;8.86;64.11;98310.00;7709919;32;39446;-79
2024/01/03 05:33:02;;;;;;;4.05;2.60;;;;;;;9.11;63.39;98319.66;7709623;32;39720;-80
2024/01/03 05:37:19;;;;;;;4.25;2.80;;;;;;;8.87;64.27;98312.41;7708771;32;37954;-80
2024/01/03 05:41:35;;;;;;;3.60;2.58;;;;;;;9.13;63.66;98309.28;7709140;32;37873;-80
2024/01/03 05:45:51;;;;;;;5.72;2.47;;;;;;;9.29;63.19;98310.59;7709250;32;39303;-80
2024/01/03 05:50:08;;;;;;;5.05;2.60;;;;;;;9.27;63.09;98317.47;7709152;32;39920;-79
2024/01/03 05:54:25;;;;;;;7.20;2.53;;;;;;;9.36;62.73;98302.84;7708992;32;37847;-79
2024/01/03 05:58:42;;;;;;;4.37;2.60;;;;;;;9.29;62.75;98332.37;7708857;32;37056;-80
2024/01/03 06:02:58;;;;;;;3.40;2.42;;;;;;;9.10;62.84;98339.78;7708853;32;39507;-80
2024/01/03 06:07:15;;;;;;;6.22;3.53;;;;;;;9.39;62.37;98342.25;7708645;32;39830;-79
2024/01/03 06:11:31;;;;;;;4.35;2.92;;;;;;;9.30;62.38;98349.50;7710445;32;37950;-80
2024/01/03 06:15:47;;;;;;;3.75;2.55;;;;;;;9.33;61.98;98344.28;7698999;32;37917;-80
2024/01/03 06:20:04;;;;;;;7.32;2.20;;;;;;;9.16;62.49;98344.03;7712590;32;39424;-79
2024/01/03 06:24:20;;;;;;;5.45;2.28;;;;;;;9.43;61.92;98343.28;7704019;32;40593;-80
2024/01/03 06:28:37;;;;;;;4.68;2.25;;;;;;;9.20;60.85;98337.69;7685724;32;37804;-83
2024/01/03 06:32:53;;;;;;;4.40;2.30;;;;;;;9.49;61.95;98344.00;7700307;32;37464;-79
2024/01/03 06:37:09;;;;;;;3.78;2.33;;;;;;;10.07;63.39;98351.59;7688636;32;40124;-80
2024/01/03 06:41:25;;;;;;;4.35;2.78;;;;;;;10.21;60.73;98342.59;7685632;32;40774;-81
2024/01/03 06:45:42;;;;;;;5.80;2.20;;;;;;;10.07;59.96;98351.59;7701090;32;39526;-80
2024/01/03 06:49:59;;;;;;;3.95;2.50;;;;;;;9.90;59.87;98356.81;7706598;32;37681;-80
2024/01/03 06:54:16;;;;;;;5.55;3.00;;;;;;;9.87;60.25;98352.00;7692470;32;39433;-82
2024/01/03 06:58:32;;;;;;;6.55;3.50;;;;;;;9.81;60.31;98364.09;8089619;27;39593;-81
2024/01/03 07:02:49;;;;;;;6.60;3.20;;;;;;;9.94;59.74;98357.84;7686422;32;38735;-82
2024/01/03 07:07:05;;;;;;;4.28;2.65;;;;;;;9.64;60.76;98361.94;7716743;32;37987;-81
2024/01/03 07:11:21;;;;;;;6.15;3.00;;;;;;;9.54;61.15;98365.69;7685268;32;39443;-81
2024/01/03 07:15:38;;;;;;;6.25;3.20;;;;;;;9.73;60.53;98358.25;7686830;32;39780;-82
2024/01/03 07:19:54;;;;;;;5.87;2.72;;;;;;;9.64;60.56;98354.59;7710842;32;37757;-81
2024/01/03 07:24:11;;;;;;;10.60;6.00;;;;;;;9.55;59.89;98370.00;7688919;32;37017;-82
2024/01/03 07:28:27;;;;;;;4.90;3.10;;;;;;;9.20;60.59;98366.78;7706310;32;39550;-82
2024/01/03 07:32:43;;;;;;;10.73;5.82;;;;;;;9.17;59.50;98367.38;7710755;32;39926;-82
2024/01/03 07:37:00;;;;;;;4.03;2.42;;;;;;;9.24;59.72;98365.09;7700198;32;38671;-82
2024/01/03 07:41:19;;;;;;;9.43;5.45;;;;;;;9.12;59.86;98362.03;7709307;32;36830;-80
2024/01/03 07:45:36;;;;;;;7.22;3.92;;;;;;;9.59;59.23;98365.59;7696635;32;39420;-82
2024/01/03 07:49:52;;;;;;;3.70;2.08;;;;;;;9.62;59.50;98364.97;7693509;32;40029;-82
2024/01/03 07:54:09;;;;;;;4.95;2.50;;;;;;;10.12;59.59;98369.72;7686486;32;37647;-82
2024/01/03 07:58:25;;;;;;;3.33;2.40;;;;;;;10.35;57.77;98362.50;7685096;32;37258;-82
2024/01/03 08:02:42;;;;;;;5.03;2.17;;;;;;;10.46;57.15;98361.16;7687780;32;40090;-81
2024/01/03 08:06:59;;;;;;;2.72;1.98;;;;;;;10.93;56.95;98354.66;7709732;32;40828;-80
2024/01/03 08:11:15;;;;;;;3.90;2.17;;;;;;;10.58;55.77;98359.81;7708626;32;38781;-81
2024/01/03 08:15:31;;;;;;;4.07;2.20;;;;;;;10.84;55.11;98365.50;7708059;32;36646;-81
2024/01/03 08:19:48;;;;;;;3.47;2.12;;;;;;;10.32;55.78;98365.81;7710489;32;39137;-81
2024/01/03 08:24:04;;;;;;;12.63;5.50;;;;;;;10.55;55.67;98368.59;7708121;32;39675;-81
2024/01/03 08:28:21;;;;;;;2.92;1.60;;;;;;;10.82;55.62;98370.47;7709940;32;37860;-82
2024/01/03 08:32:39;;;;;;;4.35;2.95;;;;;;;10.89;53.90;98371.63;7709828;32;37220;-82
2024/01/03 08:36:55;;;;;;;1.60;1.30;;;;;;;10.88;54.62;98386.38;7710891;32;40199;-82
2024/01/03 08:41:15;;;;;;;3.33;1.65;;;;;;;11.85;52.50;98379.63;7710823;32;39960;-82
2024/01/03 08:45:33;;;;;;;1.77;1.52;;;;;;;11.71;52.74;98396.09;7710751;32;39035;-82
2024/01/03 08:49:49;;;;;;;1.60;1.40;;;;;;;11.59;52.56;98404.88;7710713;32;37114;-82
2024/01/03 08:54:06;;;;;;;1.10;1.10;;;;;;;12.00;52.51;98417.47;7710809;32;39369;-81
2024/01/03 08:58:22;;;;;;;2.47;1.58;;;;;;;11.95;51.72;98409.41;7710244;32;39739;-81
2024/01/03 09:02:39;;;;;;;2.50;1.48;;;;;;;12.00;51.16;98417.47;7710399;32;37630;-82
2024/01/03 09:06:55;;;;;;;2.50;1.80;;;;;;;12.32;51.62;98403.75;7710347;32;37823;-82
2024/01/03 09:11:12;;;;;;;1.90;1.37;;;;;;;12.33;51.04;98400.72;7710311;32;39414;-82
2024/01/03 09:15:29;;;;;;;1.70;1.42;;;;;;;12.47;50.00;98413.44;7710121;32;40682;-82
2024/01/03 09:19:45;;;;;;;1.70;1.48;;;;;;;12.61;49.90;98411.41;7709876;32;37925;-81
2024/01/03 09:24:04;;;;;;;1.40;1.30;;;;;;;12.72;48.62;98415.41;7709888;32;37266;-82
2024/01/03 09:28:21;;;;;;;3.15;1.30;;;;;;;12.94;48.34;98413.69;7709884;32;40121;-81
2024/01/03 09:32:37;;;;;;;3.40;1.50;;;;;;;13.09;48.12;98426.88;7709673;32;39860;-82
2024/01/03 09:36:54;;;;;;;2.03;1.50;;;;;;;12.17;50.07;98438.56;7709480;32;37824;-82
2024/01/03 09:41:12;;;;;;;2.17;1.52;;;;;;;12.51;49.07;98425.38;7709457;32;36768;-82
2024/01/03 09:45:29;;;;;;;1.10;1.10;;;;;;;12.80;49.84;98434.88;7710588;32;39282;-82
2024/01/03 09:49:46;;;;;;;2.20;1.58;;;;;;;13.07;48.23;98433.78;7713031;32;39947;-82
2024/01/03 09:54:02;;;;;;;2.12;1.20;;;;;;;12.73;48.06;98438.91;7699180;32;37761;-81
2024/01/03 09:58:20;;;;;;;1.30;1.20;;;;;;;12.45;48.63;98429.34;7698958;32;37796;-81
2024/01/03 10:02:36;;;;;;;5.50;1.40;;;;;;;12.18;50.49;98437.47;7712775;32;39840;-81
2024/01/03 10:06:54;;;;;;;1.35;1.25;;;;;;;12.28;50.01;98447.31;7712669;32;40888;-82
2024/01/03 10:11:20;;;;;;;2.95;1.50;;;;;;;12.07;51.83;98455.25;7712676;32;38081;-81
2024/01/03 10:15:38;;;;;;;2.15;1.48;;;;;;;12.97;49.34;98440.41;7712752;32;37866;-81
2024/01/03 10:19:54;;;;;;;3.35;1.27;;;;;;;13.08;48.93;98449.09;7712636;32;40104;-82
2024/01/03 10:24:11;;;;;;;4.20;1.40;;;;;;;13.26;48.66;98447.16;7712635;32;39990;-82
2024/01/03 10:28:28;;;;;;;2.12;1.40;;;;;;;13.12;48.32;98441.84;7712478;32;38154;-82
2024/01/03 10:32:55;;;;;;;1.73;1.33;;;;;;;13.48;47.77;98451.69;7712429;32;37596;-82
2024/01/03 10:37:12;;;;;;;1.40;1.30;;;;;;;12.78;49.28;98433.28;7712465;32;40084;-82
2024/01/03 10:41:31;;;;;;;1.90;1.60;;;;;;;13.15;49.00;98435.72;7712303;32;39726;-81
2024/01/03 10:45:47;;;;;;;2.08;1.30;;;;;;;13.38;49.28;98439.13;7712288;32;38921;-81
2024/01/03 10:50:04;;;;;;;4.32;1.58;;;;;;;13.19;48.62;98438.63;7698915;32;35029;-82
2024/01/03 10:54:23;;;;;;;1.83;1.50;;;;;;;13.19;48.01;98435.88;7712451;32;40072;-82
2024/01/03 10:58:40;;;;;;;2.35;1.50;;;;;;;12.86;50.11;98437.16;7711975;32;39155;-82
2024/01/03 11:03:05;;;;;;;3.00;1.75;;;;;;;12.62;50.52;98429.38;7712146;32;37682;-82
2024/01/03 11:07:37;;;;;;;1.92;1.50;;;;;;;13.51;48.37;98416.25;7699380;32;36846;-82
2024/01/03 11:12:10;;;;;;;4.55;2.17;;;;;;;13.04;48.87;98418.84;7712094;32;40040;-82
2024/01/03 11:16:38;;;;;;;2.15;1.50;;;;;;;13.08;49.53;98410.78;7711914;32;41934;-82
2024/01/03 11:20:54;;;;;;;2.87;1.65;;;;;;;13.37;48.88;98404.69;7711953;32;37720;-82
2024/01/03 11:25:30;;;;;;;1.95;1.40;;;;;;;13.64;49.17;98402.69;7711910;32;37628;-82
2024/01/03 11:29:50;;;;;;;1.92;1.45;;;;;;;13.18;49.56;98390.50;7711698;32;40158;-81
2024/01/03 11:34:38;;;;;;;3.87;1.60;;;;;;;13.05;50.12;98393.06;7711809;32;39741;-82
2024/01/03 11:38:55;;;;;;;1.48;1.30;;;;;;;13.16;49.62;98385.37;7711680;32;37987;-82
2024/01/03 11:43:12;;;;;;;2.55;1.37;;;;;;;13.01;49.64;98380.38;7711678;32;37148;-82
2024/01/03 11:47:28;;;;;;;3.95;1.73;;;;;;;12.96;49.90;98375.88;7711677;32;39313;-82
2024/01/03 11:51:44;;;;;;;2.08;1.58;;;;;;;12.94;50.31;98378.91;7711506;32;40060;-82
2024/01/03 11:56:01;;;;;;;3.50;1.65;;;;;;;13.05;49.92;98376.66;7711468;32;37946;-82
2024/01/03 12:00:23;;;;;;;2.95;2.00;;;;;;;12.78;49.06;98372.34;7711332;32;37095;-83
2024/01/03 12:04:41;;;;;;;2.80;1.95;;;;;;;12.90;50.04;98369.75;7711533;32;39213;-82
2024/01/03 12:08:58;;;;;;;4.75;1.90;;;;;;;12.94;50.22;98378.13;7710783;32;39864;-82
2024/01/03 12:13:15;;;;;;;2.83;1.58;;;;;;;12.76;49.31;98389.06;7697548;32;38597;-81
2024/01/03 12:17:33;;;;;;;3.17;1.55;;;;;;;12.89;48.70;98381.03;7711196;32;37298;-82
2024/01/03 12:22:02;;;;;;;1.55;1.40;;;;;;;12.45;49.01;98374.69;7711270;32;40948;-82
2024/01/03 12:26:19;;;;;;;1.50;1.37;;;;;;;12.10;49.33;98369.13;7711221;32;40132;-82
2024/01/03 12:30:35;;;;;;;3.22;1.77;;;;;;;12.50;48.81;98366.34;7711013;32;38751;-82
2024/01/03 12:35:04;;;;;;;1.40;1.30;;;;;;;13.00;47.40;98368.63;7711101;32;37913;-82
2024/01/03 12:39:20;;;;;;;1.58;1.40;;;;;;;12.73;47.94;98377.97;7710972;32;39964;-82
2024/01/03 12:43:36;;;;;;;2.37;1.40;;;;;;;12.81;47.56;98379.88;7710942;32;40665;-81
2024/01/03 12:47:52;;;;;;;3.65;1.98;;;;;;;12.84;46.13;98375.72;7710736;32;38623;-82
2024/01/03 12:52:09;;;;;;;4.00;1.67;;;;;;;12.74;48.96;98377.63;7710774;32;37897;-81
2024/01/03 12:56:25;;;;;;;2.47;1.60;;;;;;;12.84;48.36;98375.72;7710593;32;40230;-82
2024/01/03 13:00:44;;;;;;;2.25;1.50;;;;;;;13.33;47.88;98373.59;7710461;32;41273;-82
2024/01/03 13:05:01;;;;;;;3.60;1.67;;;;;;;12.37;50.11;98374.34;7710436;32;37852;-82
2024/01/03 13:09:23;;;;;;;1.55;1.30;;;;;;;12.61;50.47;98380.50;7710321;32;37162;-81
2024/01/03 13:13:40;;;;;;;3.53;1.90;;;;;;;12.52;47.63;98366.81;7710353;32;39107;-82
2024/01/03 13:17:56;;;;;;;1.80;1.50;;;;;;;12.46;50.52;98376.31;7709997;32;39735;-82
2024/01/03 13:22:13;;;;;;;2.55;1.80;;;;;;;12.24;49.83;98374.47;7712493;32;39507;-82
2024/01/03 13:26:29;;;;;;;2.58;2.08;;;;;;;12.48;49.83;98374.06;7713246;32;37947;-82
2024/01/03 13:30:46;;;;;;;2.10;1.48;;;;;;;12.77;49.59;98379.72;7713352;32;39311;-82
2024/01/03 13:35:02;;;;;;;3.37;1.85;;;;;;;12.30;49.15;98374.03;7713180;32;39738;-81
2024/01/03 13:39:18;;;;;;;2.42;1.50;;;;;;;12.57;48.25;98374.88;7699116;32;37596;-82
2024/01/03 13:43:35;;;;;;;4.20;1.90;;;;;;;12.66;48.12;98386.63;7713038;32;37337;-82
2024/01/03 13:47:52;;;;;;;2.03;1.45;;;;;;;13.10;48.13;98372.97;7712976;32;39346;-82
2024/01/03 13:52:08;;;;;;;4.22;2.05;;;;;;;12.54;48.37;98372.78;7712966;32;40771;-82
2024/01/03 13:56:24;;;;;;;2.65;1.77;;;;;;;12.74;48.45;98383.09;7712820;32;38670;-82
2024/01/03 14:00:41;;;;;;;6.45;1.70;;;;;;;12.41;48.91;98377.25;7697812;32;37866;-81
2024/01/03 14:04:57;;;;;;;1.60;1.48;;;;;;;12.57;49.21;98388.53;7711630;32;39326;-83
2024/01/03 14:09:16;;;;;;;1.42;1.30;;;;;;;11.99;49.93;98395.94;7711505;32;40809;-82
2024/01/03 14:13:33;;;;;;;2.55;1.75;;;;;;;12.00;50.45;98389.34;7711574;32;38752;-82
2024/01/03 14:17:50;;;;;;;2.70;1.90;;;;;;;11.93;50.59;98392.53;7711264;32;38012;-82
2024/01/03 14:22:06;;;;;;;3.08;1.70;;;;;;;12.70;49.68;98398.53;7711236;32;39160;-82
2024/01/03 14:26:23;;;;;;;4.07;1.87;;;;;;;16.53;41.17;98378.06;7711236;32;39907;-82
2024/01/03 14:30:39;;;;;;;2.87;1.73;;;;;;;18.60;35.96;98365.88;7710793;32;38110;-83
2024/01/03 14:34:56;;;;;;;2.20;1.40;;;;;;;20.07;32.99;98366.84;7711151;32;37004;-83
2024/01/03 14:39:12;;;;;;;3.55;1.62;;;;;;;21.42;30.64;98360.00;7710952;32;39201;-82
2024/01/03 14:43:31;;;;;;;7.18;3.17;;;;;;;21.53;29.78;98362.91;7711173;32;39681;-83
2024/01/03 14:47:49;;;;;;;6.97;3.22;;;;;;;21.60;29.83;98356.66;7710861;32;38896;-82
2024/01/03 14:52:07;;;;;;;7.00;3.30;;;;;;;21.28;30.10;98357.06;7710772;32;37174;-82
2024/01/03 14:56:27;;;;;;;7.18;3.42;;;;;;;19.17;32.83;98360.81;7710988;32;40217;-82
2024/01/03 15:00:44;;;;;;;11.82;5.12;;;;;;;17.98;35.65;98367.19;7707226;32;154293;-82
2024/01/03 15:05:00;;;;;;;5.55;2.78;;;;;;;17.42;36.45;98367.28;7712018;32;37848;-82
2024/01/03 15:09:17;;;;;;;5.60;3.03;;;;;;;16.28;38.69;98370.97;7712036;32;38112;-82
2024/01/03 15:13:33;;;;;;;6.43;3.22;;;;;;;15.76;39.66;98372.44;7712026;32;40272;-82
2024/01/03 15:17:50;;;;;;;8.10;3.58;;;;;;;15.63;40.35;98377.06;7711961;32;39955;-83
2024/01/03 15:22:15;;;;;;;7.80;3.30;;;;;;;15.38;40.98;98384.44;7711912;32;38674;-82
2024/01/03 15:26:32;;;;;;;6.53;2.70;;;;;;;14.92;41.78;98389.84;7712081;32;36924;-82
2024/01/03 15:30:49;;;;;;;9.20;3.20;;;;;;;14.81;41.95;98378.47;7712288;32;40130;-82
2024/01/03 15:35:08;;;;;;;7.57;3.78;;;;;;;14.24;43.22;98371.50;7711752;32;40035;-82
2024/01/03 15:39:24;;;;;;;6.37;3.15;;;;;;;14.55;42.47;98375.84;7711729;32;37908;-82
2024/01/03 15:43:41;;;;;;;13.45;4.53;;;;;;;14.35;42.92;98368.41;7710857;32;37163;-82
2024/01/03 15:47:57;;;;;;;5.97;3.28;;;;;;;14.30;42.79;98379.56;7711568;32;39508;-82
2024/01/03 15:52:14;;;;;;;8.45;3.28;;;;;;;14.36;42.94;98378.25;7711779;32;39994;-82
2024/01/03 15:56:30;;;;;;;4.50;2.60;;;;;;;14.36;42.94;98383.72;7711482;32;37945;-82
2024/01/03 16:00:47;;;;;;;5.12;2.42;;;;;;;14.11;43.46;98378.06;7711336;32;37865;-82
2024/01/03 16:05:03;;;;;;;6.68;3.47;;;;;;;14.19;43.04;98377.19;7697826;32;39313;-81
2024/01/03 16:09:22;;;;;;;5.62;3.12;;;;;;;14.06;43.09;98380.97;7711624;32;40715;-82
2024/01/03 16:13:39;;;;;;;4.82;2.50;;;;;;;14.13;43.04;98366.75;7711384;32;37958;-83
2024/01/03 16:17:56;;;;;;;6.62;3.08;;;;;;;14.17;43.01;98373.97;7711308;32;37929;-82
2024/01/03 16:22:13;;;;;;;8.35;3.12;;;;;;;14.11;43.51;98372.56;7711330;32;40159;-82
2024/01/03 16:26:30;;;;;;;7.12;3.10;;;;;;;13.74;44.35;98371.44;7711182;32;40799;-82
2024/01/03 16:30:46;;;;;;;8.93;3.28;;;;;;;13.89;44.35;98360.72;7711062;32;37717;-81
2024/01/03 16:35:03;;;;;;;6.72;3.25;;;;;;;13.72;44.52;98360.78;7711083;32;37249;-82
2024/01/03 16:39:20;;;;;;;7.53;3.15;;;;;;;13.72;44.19;98360.78;7710984;32;39356;-81
2024/01/03 16:43:36;;;;;;;4.93;2.53;;;;;;;13.57;44.93;98362.13;7710907;32;39655;-82
2024/01/03 16:47:52;;;;;;;4.50;2.47;;;;;;;13.74;44.20;98358.53;7710731;32;38746;-82
2024/01/03 16:52:09;;;;;;;5.30;2.40;;;;;;;13.74;44.18;98353.03;7710734;32;37170;-82
2024/01/03 16:56:27;;;;;;;7.57;3.15;;;;;;;13.66;44.36;98359.34;7710510;32;39268;-82
2024/01/03 17:00:46;;;;;;;6.45;2.80;;;;;;;13.65;44.10;98365.97;7710329;32;40887;-81
2024/01/03 17:05:02;;;;;;;6.47;3.10;;;;;;;13.61;44.67;98359.56;7710495;32;37626;-81
2024/01/03 17:09:19;;;;;;;7.87;3.10;;;;;;;13.11;45.59;98358.16;7710353;32;37023;-81
2024/01/03 17:13:36;;;;;;;9.85;3.60;;;;;;;12.68;45.95;98362.50;7710274;32;39461;-82
2024/01/03 17:17:53;;;;;;;4.85;2.62;;;;;;;13.14;45.41;98352.84;7710062;32;39892;-81
2024/01/03 17:22:09;;;;;;;4.65;2.80;;;;;;;12.61;46.49;98359.44;7710005;32;38786;-81
2024/01/03 17:26:29;;;;;;;8.02;3.70;;;;;;;12.87;46.33;98383.28;7709946;32;37770;-82
2024/01/03 17:30:45;;;;;;;6.80;3.30;;;;;;;13.13;45.95;98378.59;7709937;32;39501;-81
2024/01/03 17:35:02;;;;;;;8.48;4.00;;;;;;;12.06;48.62;98392.75;7709625;32;40749;-82
2024/01/03 17:39:18;;;;;;;6.72;2.90;;;;;;;12.46;48.87;98374.38;7695709;32;37706;-82
2024/01/03 17:43:36;;;;;;;8.52;3.40;;;;;;;12.30;49.03;98363.09;7695848;32;37791;-81
2024/01/03 17:47:52;;;;;;;7.60;3.80;;;;;;;12.23;49.37;98362.75;7709371;32;40008;-81
2024/01/03 17:52:09;;;;;;;6.15;3.22;;;;;;;12.44;49.05;98367.63;7709260;32;40179;-82
2024/01/03 17:56:26;;;;;;;4.45;2.67;;;;;;;12.26;49.91;98364.84;7708984;32;37843;-82
2024/01/03 18:00:44;;;;;;;5.90;2.60;;;;;;;12.52;49.25;98343.03;7708883;32;36382;-81
2024/01/03 18:05:00;;;;;;;5.97;2.70;;;;;;;12.47;49.83;98345.94;7708972;32;40142;-81
2024/01/03 18:09:16;;;;;;;4.57;2.75;;;;;;;12.15;51.27;98360.81;7712672;32;39907;-81
2024/01/03 18:13:33;;;;;;;4.68;2.30;;;;;;;11.87;52.47;98363.72;7712876;32;38083;-81
2024/01/03 18:17:49;;;;;;;6.00;2.90;;;;;;;11.86;53.09;98364.84;7712753;32;37210;-82
2024/01/03 18:22:10;;;;;;;6.30;2.60;;;;;;;11.90;53.79;98371.28;7712711;32;40120;-81
2024/01/03 18:26:27;;;;;;;4.18;2.50;;;;;;;12.64;51.57;98367.03;7712698;32;39324;-82
2024/01/03 18:30:44;;;;;;;4.10;2.33;;;;;;;12.43;52.09;98371.47;7712485;32;38812;-82
2024/01/03 18:35:04;;;;;;;4.03;2.20;;;;;;;12.51;51.43;98385.16;7712611;32;37847;-82
2024/01/03 18:39:20;;;;;;;5.55;2.25;;;;;;;12.51;51.25;98376.94;7712465;32;39264;-81
2024/01/03 18:43:36;;;;;;;4.72;2.12;;;;;;;12.91;49.83;98365.09;7712381;32;40797;-81
2024/01/03 18:47:53;;;;;;;3.80;2.37;;;;;;;12.68;49.77;98376.19;7712480;32;38758;-82
2024/01/03 18:52:09;;;;;;;3.78;2.20;;;;;;;12.56;50.00;98379.53;7712294;32;37908;-81
2024/01/03 18:56:26;;;;;;;4.90;2.50;;;;;;;12.61;49.87;98356.72;7712209;32;39282;-82
2024/01/03 19:00:43;;;;;;;6.68;2.30;;;;;;;12.73;50.07;98358.81;7711707;32;40835;-82
2024/01/03 19:05:00;;;;;;;3.97;2.47;;;;;;;12.10;51.98;98366.41;7712126;32;37685;-81
2024/01/03 19:09:16;;;;;;;4.82;2.33;;;;;;;12.40;51.32;98354.59;7712173;32;37943;-82
2024/01/03 19:13:33;;;;;;;2.90;1.80;;;;;;;13.01;49.80;98345.63;7712131;32;39370;-82
2024/01/03 19:17:49;;;;;;;3.97;2.42;;;;;;;12.83;50.43;98344.00;7710818;32;40845;-81
2024/01/03 19:22:05;;;;;;;5.18;2.50;;;;;;;12.79;50.79;98368.47;7711695;32;37971;-82
2024/01/03 19:26:23;;;;;;;4.00;2.08;;;;;;;12.44;52.06;98362.16;7712028;32;37229;-81
2024/01/03 19:30:40;;;;;;;5.03;2.60;;;;;;;12.80;51.26;98366.53;7711895;32;39300;-81
2024/01/03 19:34:56;;;;;;;2.95;1.80;;;;;;;12.15;53.08;98360.81;7711787;32;40879;-81
2024/01/03 19:39:13;;;;;;;3.55;2.30;;;;;;;11.81;54.38;98367.69;7711831;32;38144;-82
2024/01/03 19:43:29;;;;;;;4.25;2.42;;;;;;;12.00;54.05;98365.59;7711704;32;37222;-82
2024/01/03 19:47:46;;;;;;;6.12;2.15;;;;;;;12.15;53.54;98356.13;7711771;32;39376;-82
2024/01/03 19:52:03;;;;;;;3.35;1.75;;;;;;;12.24;53.59;98344.44;7711682;32;39965;-82
2024/01/03 19:56:19;;;;;;;4.28;2.00;;;;;;;12.10;53.82;98341.81;7711520;32;37878;-82
2024/01/03 20:00:36;;;;;;;3.70;1.98;;;;;;;12.11;54.09;98332.53;7711362;32;37142;-81
2024/01/03 20:04:53;;;;;;;3.03;2.08;;;;;;;11.88;54.76;98335.28;7711504;32;39408;-82
2024/01/03 20:09:10;;;;;;;3.00;1.87;;;;;;;12.04;53.88;98330.25;7711488;32;41550;-82
2024/01/03 20:13:27;;;;;;;4.28;1.92;;;;;;;12.91;51.59;98335.00;7711388;32;37946;-82
2024/01/03 20:17:43;;;;;;;3.10;1.95;;;;;;;13.02;51.44;98319.88;7711353;32;37114;-82